createdAt,value
2023-02-12T00:00:04.089Z,7.50
2023-02-12T00:02:30.967Z,9.03
2023-02-12T00:04:57.703Z,8.87
2023-02-12T00:07:24.459Z,8.87
2023-02-12T00:09:51.116Z,8.53
2023-02-12T00:12:17.837Z,8.90
2023-02-12T00:14:44.553Z,8.77
2023-02-12T00:17:11.331Z,8.13
2023-02-12T00:19:38.165Z,8.10
2023-02-12T00:22:04.877Z,7.80
2023-02-12T00:24:32.296Z,8.40
2023-02-12T00:26:59.000Z,7.87
2023-02-12T00:29:25.906Z,8.80
2023-02-12T00:31:52.873Z,8.33
2023-02-12T00:34:19.753Z,8.03
2023-02-12T00:36:46.554Z,8.93
2023-02-12T00:39:13.313Z,8.40
2023-02-12T00:41:39.992Z,8.37
2023-02-12T00:44:06.780Z,9.77
2023-02-12T00:46:33.557Z,8.43
2023-02-12T00:49:00.403Z,9.17
2023-02-12T00:51:27.229Z,9.50
2023-02-12T00:53:53.926Z,10.23
2023-02-12T00:56:20.908Z,9.27
2023-02-12T00:58:47.780Z,10.77
2023-02-12T01:01:14.838Z,11.20
2023-02-12T01:03:41.561Z,10.20
2023-02-12T01:06:08.709Z,9.83
2023-02-12T01:08:35.622Z,9.87
2023-02-12T01:11:04.758Z,9.87
2023-02-12T01:13:33.287Z,10.70
2023-02-12T01:16:16.723Z,11.03
2023-02-12T01:18:43.755Z,11.90
2023-02-12T01:21:23.327Z,11.70
2023-02-12T01:23:50.188Z,11.73
2023-02-12T01:26:19.117Z,11.03
2023-02-12T01:28:51.024Z,12.40
2023-02-12T01:31:23.596Z,12.10
2023-02-12T01:33:52.552Z,11.57
2023-02-12T01:36:19.453Z,12.03
2023-02-12T01:38:46.186Z,13.03
2023-02-12T01:41:16.555Z,12.37
2023-02-12T01:43:43.492Z,12.00
2023-02-12T01:46:13.101Z,12.57
2023-02-12T01:48:45.286Z,12.87
2023-02-12T01:51:20.108Z,12.57
2023-02-12T01:53:51.190Z,12.80
2023-02-12T01:56:18.290Z,13.63
2023-02-12T01:58:47.281Z,12.57
2023-02-12T02:01:26.538Z,13.40
2023-02-12T02:03:59.768Z,13.40
2023-02-12T02:06:31.898Z,13.03
2023-02-12T02:08:58.684Z,13.87
2023-02-12T02:11:43.896Z,13.20
2023-02-12T02:14:29.116Z,13.60
2023-02-12T02:17:03.774Z,13.03
2023-02-12T02:19:49.202Z,13.00
2023-02-12T02:22:34.528Z,13.73
2023-02-12T02:25:15.878Z,14.03
2023-02-12T02:28:03.852Z,13.80
2023-02-12T02:31:00.704Z,13.97
2023-02-12T02:33:33.568Z,14.60
2023-02-12T02:36:41.386Z,14.03
2023-02-12T02:39:40.632Z,15.13
2023-02-12T02:42:25.297Z,14.80
2023-02-12T02:45:02.842Z,13.83
2023-02-12T02:47:39.815Z,14.57
2023-02-12T02:50:11.893Z,15.43
2023-02-12T02:52:48.282Z,13.87
2023-02-12T02:55:18.542Z,14.80
2023-02-12T02:58:25.912Z,15.77
2023-02-12T03:01:22.839Z,14.67
2023-02-12T03:04:01.373Z,14.97
2023-02-12T03:06:36.101Z,13.87
2023-02-12T03:09:26.216Z,15.00
2023-02-12T03:11:57.172Z,14.77
2023-02-12T03:14:29.655Z,15.00
2023-02-12T03:17:10.331Z,14.87
2023-02-12T03:19:53.052Z,14.80
2023-02-12T03:22:33.816Z,15.20
2023-02-12T03:25:14.353Z,14.30
2023-02-12T03:28:11.512Z,15.47
2023-02-12T03:30:59.601Z,15.10
2023-02-12T03:33:42.172Z,15.03
2023-02-12T03:36:31.817Z,15.30
2023-02-12T03:39:25.159Z,15.63
2023-02-12T03:42:09.052Z,14.90
2023-02-12T03:45:08.233Z,14.83
2023-02-12T03:47:56.416Z,15.60
2023-02-12T03:50:32.146Z,14.60
2023-02-12T03:52:58.958Z,14.70
2023-02-12T03:55:26.068Z,16.30
2023-02-12T03:58:00.969Z,15.50
2023-02-12T04:00:28.239Z,15.43
2023-02-12T04:02:55.568Z,16.10
2023-02-12T04:05:25.928Z,15.43
2023-02-12T04:07:55.658Z,15.07
2023-02-12T04:10:32.817Z,15.90
2023-02-12T04:13:31.580Z,15.50
2023-02-12T04:16:30.665Z,15.23
2023-02-12T04:18:57.593Z,15.20
2023-02-12T04:21:54.004Z,16.80
2023-02-12T04:24:59.627Z,14.87
2023-02-12T04:27:35.920Z,15.03
2023-02-12T04:30:07.420Z,16.27
2023-02-12T04:33:17.248Z,16.57
2023-02-12T04:36:27.872Z,15.97
2023-02-12T04:38:59.096Z,14.20
2023-02-12T04:41:26.385Z,15.03
2023-02-12T04:43:53.018Z,16.73
2023-02-12T04:46:19.958Z,17.00
2023-02-12T04:48:58.607Z,16.03
2023-02-12T04:51:25.392Z,16.37
2023-02-12T04:53:52.450Z,15.80
2023-02-12T04:56:19.164Z,15.70
2023-02-12T04:58:45.830Z,16.23
2023-02-12T05:01:12.660Z,16.13
2023-02-12T05:03:39.556Z,17.00
2023-02-12T05:06:08.390Z,17.93
2023-02-12T05:08:35.854Z,17.20
2023-02-12T05:11:08.035Z,17.43
2023-02-12T05:13:35.388Z,16.70
2023-02-12T05:16:07.404Z,18.30
2023-02-12T05:18:35.504Z,18.50
2023-02-12T05:21:04.882Z,18.67
2023-02-12T05:23:34.872Z,19.43
2023-02-12T05:26:03.535Z,17.50
2023-02-12T05:28:31.132Z,18.87
2023-02-12T05:31:03.171Z,19.77
2023-02-12T05:33:30.655Z,20.43
2023-02-12T05:36:07.241Z,20.77
2023-02-12T05:38:34.509Z,21.17
2023-02-12T05:41:15.419Z,22.13
2023-02-12T05:43:42.465Z,22.03
2023-02-12T05:46:09.755Z,22.50
2023-02-12T05:48:37.416Z,23.47
2023-02-12T05:51:25.349Z,21.50
2023-02-12T05:53:56.441Z,23.23
2023-02-12T05:56:31.313Z,22.90
2023-02-12T05:59:02.321Z,22.23
2023-02-12T06:01:35.539Z,22.17
2023-02-12T06:04:05.386Z,23.43
2023-02-12T06:06:33.789Z,24.60
2023-02-12T06:09:01.244Z,23.20
2023-02-12T06:11:28.602Z,24.00
2023-02-12T06:13:55.298Z,23.40
2023-02-12T06:16:28.596Z,24.07
2023-02-12T06:18:56.669Z,24.60
2023-02-12T06:21:25.279Z,23.03
2023-02-12T06:23:52.785Z,22.60
2023-02-12T06:26:20.261Z,23.83
2023-02-12T06:28:47.105Z,23.73
2023-02-12T06:31:21.970Z,24.47
2023-02-12T06:33:49.460Z,23.73
2023-02-12T06:36:16.775Z,24.13
2023-02-12T06:38:43.802Z,23.80
2023-02-12T06:41:10.587Z,24.33
2023-02-12T06:43:37.838Z,24.43
2023-02-12T06:46:06.028Z,23.77
2023-02-12T06:48:33.610Z,22.83
2023-02-12T06:51:10.284Z,23.00
2023-02-12T06:53:37.338Z,23.80
2023-02-12T06:56:06.334Z,23.00
2023-02-12T06:58:33.287Z,21.93
2023-02-12T07:01:15.169Z,22.93
2023-02-12T07:03:42.860Z,22.43
2023-02-12T07:06:10.535Z,22.70
2023-02-12T07:08:37.524Z,22.20
2023-02-12T07:11:05.126Z,22.80
2023-02-12T07:13:34.950Z,21.77
2023-02-12T07:16:07.497Z,23.13
2023-02-12T07:18:35.289Z,22.10
2023-02-12T07:21:02.227Z,21.63
2023-02-12T07:23:29.010Z,21.27
2023-02-12T07:26:05.085Z,21.23
2023-02-12T07:28:33.925Z,20.53
2023-02-12T07:31:08.463Z,20.83
2023-02-12T07:33:35.952Z,21.03
2023-02-12T07:36:04.288Z,21.40
2023-02-12T07:38:31.661Z,22.30
2023-02-12T07:41:32.022Z,21.73
2023-02-12T07:44:03.597Z,21.27
2023-02-12T07:46:33.934Z,23.37
2023-02-12T07:49:04.351Z,23.40
2023-02-12T07:51:32.790Z,22.40
2023-02-12T07:54:02.849Z,22.23
2023-02-12T07:56:33.625Z,23.40
2023-02-12T07:59:05.880Z,22.97
2023-02-12T08:02:02.096Z,23.83
2023-02-12T08:04:28.984Z,22.37
2023-02-12T08:06:56.784Z,24.53
2023-02-12T08:09:27.402Z,22.63
2023-02-12T08:11:54.181Z,23.13
2023-02-12T08:14:22.379Z,24.87
2023-02-12T08:16:50.521Z,27.20
2023-02-12T08:19:21.936Z,26.27
2023-02-12T08:21:52.364Z,25.77
2023-02-12T08:24:19.107Z,28.53
2023-02-12T08:26:45.896Z,26.43
2023-02-12T08:29:15.769Z,28.23
2023-02-12T08:31:45.219Z,25.80
2023-02-12T08:34:21.484Z,25.50
2023-02-12T08:36:49.894Z,24.27
2023-02-12T08:39:18.085Z,25.47
2023-02-12T08:41:45.231Z,26.07
2023-02-12T08:44:12.977Z,24.17
2023-02-12T08:46:44.482Z,25.97
2023-02-12T08:49:26.428Z,25.20
2023-02-12T08:51:55.365Z,23.73
2023-02-12T08:54:24.945Z,22.67
2023-02-12T08:56:56.890Z,23.87
2023-02-12T08:59:23.709Z,23.03
2023-02-12T09:01:52.057Z,23.17
2023-02-12T09:04:23.096Z,21.73
2023-02-12T09:06:50.660Z,22.03
2023-02-12T09:09:17.992Z,21.43
2023-02-12T09:11:44.972Z,23.43
2023-02-12T09:14:15.495Z,22.00
2023-02-12T09:16:42.638Z,21.70
2023-02-12T09:19:13.058Z,22.63
2023-02-12T09:21:40.120Z,20.93
2023-02-12T09:24:07.219Z,22.17
2023-02-12T09:26:33.924Z,21.33
2023-02-12T09:29:02.051Z,21.33
2023-02-12T09:31:31.122Z,20.87
2023-02-12T09:34:03.338Z,20.40
2023-02-12T09:36:30.431Z,19.70
2023-02-12T09:38:59.272Z,19.43
2023-02-12T09:42:06.839Z,20.63
2023-02-12T09:44:36.515Z,18.87
2023-02-12T09:47:25.748Z,20.00
2023-02-12T09:50:17.223Z,18.97
2023-02-12T09:52:44.504Z,19.20
2023-02-12T09:55:16.622Z,17.70
2023-02-12T09:57:44.455Z,18.27
2023-02-12T10:00:18.156Z,16.90
2023-02-12T10:02:45.335Z,17.17
2023-02-12T10:05:18.878Z,16.53
2023-02-12T10:08:36.400Z,17.93
2023-02-12T10:11:29.198Z,17.47
2023-02-12T10:14:30.005Z,17.83
2023-02-12T10:17:11.852Z,16.27
2023-02-12T10:20:01.448Z,17.63
2023-02-12T10:23:14.421Z,17.13
2023-02-12T10:25:54.512Z,16.80
2023-02-12T10:28:34.426Z,15.67
2023-02-12T10:31:06.031Z,16.03
2023-02-12T10:33:49.147Z,14.93
2023-02-12T10:36:41.969Z,16.43
2023-02-12T10:39:43.015Z,15.23
2023-02-12T10:42:16.525Z,14.43
2023-02-12T10:44:43.182Z,14.17
2023-02-12T10:47:20.825Z,14.40
2023-02-12T10:49:56.458Z,13.60
2023-02-12T10:52:41.787Z,15.03
2023-02-12T10:55:27.668Z,14.47
2023-02-12T10:57:55.017Z,14.50
2023-02-12T11:00:24.605Z,13.93
2023-02-12T11:03:13.269Z,14.83
2023-02-12T11:05:42.454Z,14.47
2023-02-12T11:08:29.278Z,14.13
2023-02-12T11:11:02.448Z,14.93
2023-02-12T11:13:30.187Z,14.87
2023-02-12T11:15:57.093Z,16.30
2023-02-12T11:18:32.715Z,15.93
2023-02-12T11:21:11.812Z,16.03
2023-02-12T11:23:41.919Z,14.93
2023-02-12T11:26:20.684Z,14.83
2023-02-12T11:29:01.398Z,14.00
2023-02-12T11:31:31.260Z,14.97
2023-02-12T11:34:18.912Z,13.90
2023-02-12T11:36:52.193Z,13.63
2023-02-12T11:39:24.925Z,14.90
2023-02-12T11:42:19.908Z,14.77
2023-02-12T11:44:57.791Z,13.30
2023-02-12T11:47:35.071Z,13.47
2023-02-12T11:50:26.716Z,13.57
2023-02-12T11:52:58.940Z,13.73
2023-02-12T11:55:30.083Z,13.30
2023-02-12T11:58:04.743Z,12.80
2023-02-12T12:00:41.005Z,13.13
2023-02-12T12:03:22.327Z,12.60
2023-02-12T12:05:52.732Z,13.07
2023-02-12T12:08:51.633Z,14.20
2023-02-12T12:11:25.123Z,13.40
2023-02-12T12:14:05.985Z,14.73
2023-02-12T12:17:06.216Z,14.30
2023-02-12T12:20:10.256Z,13.27
2023-02-12T12:22:55.868Z,13.33
2023-02-12T12:25:27.473Z,12.87
2023-02-12T12:28:08.211Z,13.53
2023-02-12T12:30:43.941Z,12.53
2023-02-12T12:33:35.448Z,11.40
2023-02-12T12:36:12.857Z,11.53
2023-02-12T12:39:10.920Z,11.47
2023-02-12T12:41:48.389Z,10.77
2023-02-12T12:44:33.472Z,11.40
2023-02-12T12:47:27.879Z,10.10
2023-02-12T12:50:05.324Z,10.40
2023-02-12T12:52:58.250Z,9.73
2023-02-12T12:55:48.200Z,9.57
2023-02-12T12:58:34.300Z,9.23
2023-02-12T13:01:01.074Z,8.57
2023-02-12T13:03:39.977Z,8.60
2023-02-12T13:06:51.537Z,7.10
2023-02-12T13:09:34.679Z,5.93
2023-02-12T13:12:01.358Z,5.83
2023-02-12T13:14:43.041Z,6.27
2023-02-12T13:17:33.904Z,6.57
2023-02-12T13:20:06.976Z,6.03
2023-02-12T13:22:39.608Z,7.43
2023-02-12T13:25:20.900Z,5.93
2023-02-12T13:27:50.515Z,5.53
2023-02-12T13:30:20.914Z,5.33
2023-02-12T13:32:51.729Z,5.73
2023-02-12T13:35:23.991Z,5.27
2023-02-12T13:37:55.204Z,4.67
2023-02-12T13:40:28.305Z,5.30
2023-02-12T13:42:57.931Z,5.13
2023-02-12T13:45:33.776Z,5.83
2023-02-12T13:48:34.074Z,7.10
2023-02-12T13:51:18.943Z,6.40
2023-02-12T13:54:24.416Z,5.97
2023-02-12T13:56:58.915Z,5.83
2023-02-12T13:59:34.735Z,6.30
2023-02-12T14:02:38.382Z,5.53
2023-02-12T14:05:16.295Z,6.57
2023-02-12T14:07:52.972Z,6.60
2023-02-12T14:10:26.766Z,5.53
2023-02-12T14:13:15.127Z,6.23
2023-02-12T14:15:45.534Z,6.50
2023-02-12T14:18:26.634Z,6.10
2023-02-12T14:21:12.172Z,5.57
2023-02-12T14:23:44.104Z,5.57
2023-02-12T14:26:14.084Z,5.80
2023-02-12T14:28:49.746Z,5.87
2023-02-12T14:31:20.009Z,6.07
2023-02-12T14:33:53.539Z,5.93
2023-02-12T14:36:32.507Z,6.03
2023-02-12T14:39:29.826Z,6.00
2023-02-12T14:42:16.456Z,5.73
2023-02-12T14:44:48.825Z,5.70
2023-02-12T14:47:30.722Z,6.30
2023-02-12T14:50:18.070Z,6.20
2023-02-12T14:52:51.998Z,6.20
2023-02-12T14:55:26.036Z,7.00
2023-02-12T14:57:58.627Z,5.50
2023-02-12T15:00:36.482Z,5.30
2023-02-12T15:03:18.467Z,5.63
2023-02-12T15:06:03.221Z,5.57
2023-02-12T15:08:43.900Z,5.00
2023-02-12T15:11:51.208Z,5.10
2023-02-12T15:14:28.374Z,4.93
2023-02-12T15:17:09.926Z,4.40
2023-02-12T15:19:36.559Z,5.00
2023-02-12T15:22:03.484Z,5.33
2023-02-12T15:24:30.372Z,5.17
2023-02-12T15:27:00.876Z,5.83
2023-02-12T15:29:35.692Z,6.30
2023-02-12T15:32:05.905Z,5.60
2023-02-12T15:34:37.361Z,6.20
2023-02-12T15:37:05.424Z,6.20
2023-02-12T15:39:43.764Z,5.80
2023-02-12T15:42:42.812Z,5.77
2023-02-12T15:45:17.818Z,5.60
2023-02-12T15:47:46.130Z,5.70
2023-02-12T15:50:15.611Z,5.17
2023-02-12T15:52:45.232Z,5.20
2023-02-12T15:55:18.970Z,5.47
2023-02-12T15:57:57.724Z,5.73
2023-02-12T16:00:47.633Z,5.30
2023-02-12T16:03:31.616Z,5.80
2023-02-12T16:06:14.023Z,5.73
2023-02-12T16:08:43.611Z,5.70
2023-02-12T16:11:14.742Z,5.27
2023-02-12T16:13:49.442Z,5.97
2023-02-12T16:16:24.102Z,5.53
2023-02-12T16:19:25.271Z,4.60
2023-02-12T16:21:55.036Z,5.27
2023-02-12T16:24:26.524Z,5.20
2023-02-12T16:26:53.794Z,5.30
2023-02-12T16:29:21.345Z,5.20
2023-02-12T16:31:59.040Z,5.43
2023-02-12T16:34:37.288Z,5.40
2023-02-12T16:37:35.702Z,5.07
2023-02-12T16:40:08.373Z,4.73
2023-02-12T16:42:35.242Z,4.63
2023-02-12T16:45:02.029Z,5.17
2023-02-12T16:47:28.851Z,5.27
2023-02-12T16:49:58.732Z,5.10
2023-02-12T16:52:35.016Z,6.10
2023-02-12T16:55:02.024Z,5.50
2023-02-12T16:57:28.909Z,5.70
2023-02-12T16:59:55.580Z,5.83
2023-02-12T17:02:22.331Z,6.30
2023-02-12T17:04:49.154Z,6.43
2023-02-12T17:07:20.090Z,8.13
2023-02-12T17:09:47.035Z,9.53
2023-02-12T17:12:13.783Z,9.67
2023-02-12T17:14:40.463Z,10.80
2023-02-12T17:17:07.243Z,11.80
2023-02-12T17:19:34.177Z,10.40
2023-02-12T17:22:00.926Z,10.83
2023-02-12T17:24:30.240Z,10.40
2023-02-12T17:26:57.991Z,10.70
2023-02-12T17:29:25.664Z,10.83
2023-02-12T17:31:56.341Z,11.97
2023-02-12T17:34:24.382Z,11.10
2023-02-12T17:36:52.621Z,10.73
2023-02-12T17:39:19.900Z,9.60
2023-02-12T17:41:47.303Z,10.27
2023-02-12T17:44:15.138Z,9.43
2023-02-12T17:46:43.028Z,10.13
2023-02-12T17:49:10.327Z,9.33
2023-02-12T17:51:37.319Z,9.80
2023-02-12T17:54:04.932Z,10.17
2023-02-12T17:56:31.717Z,8.97
2023-02-12T17:58:58.533Z,8.90
2023-02-12T18:01:25.544Z,7.03
2023-02-12T18:03:54.599Z,8.17
2023-02-12T18:06:28.337Z,9.77
2023-02-12T18:08:56.996Z,8.90
2023-02-12T18:11:24.116Z,8.83
2023-02-12T18:13:55.892Z,8.23
2023-02-12T18:16:24.149Z,6.83
2023-02-12T18:18:50.928Z,7.80
2023-02-12T18:21:17.940Z,8.20
2023-02-12T18:23:45.118Z,11.90
2023-02-12T18:26:15.367Z,9.83
2023-02-12T18:28:42.948Z,10.30
2023-02-12T18:31:12.065Z,11.47
2023-02-12T18:33:39.412Z,11.70
2023-02-12T18:36:13.968Z,12.17
2023-02-12T18:38:42.699Z,12.57
2023-02-12T18:41:18.005Z,12.63
2023-02-12T18:43:45.808Z,12.10
2023-02-12T18:46:16.116Z,12.30
2023-02-12T18:48:43.300Z,12.47
2023-02-12T18:51:13.549Z,12.57
2023-02-12T18:53:40.390Z,12.00
2023-02-12T18:56:08.965Z,13.10
2023-02-12T18:58:37.425Z,20.23
2023-02-12T19:01:15.669Z,19.73
2023-02-12T19:03:43.481Z,22.43
2023-02-12T19:06:11.282Z,21.97
2023-02-12T19:08:38.788Z,28.17
2023-02-12T19:11:11.371Z,27.17
2023-02-12T19:13:38.869Z,27.47
2023-02-12T19:16:13.278Z,20.47
2023-02-12T19:18:40.995Z,21.53
2023-02-12T19:21:10.644Z,27.10
2023-02-12T19:23:38.068Z,25.20
2023-02-12T19:26:09.034Z,23.93
2023-02-12T19:28:38.658Z,21.50
2023-02-12T19:31:17.555Z,19.83
2023-02-12T19:33:45.192Z,18.57
2023-02-12T19:36:15.064Z,16.70
2023-02-12T19:38:42.050Z,18.60
2023-02-12T19:41:12.940Z,18.07
2023-02-12T19:43:40.583Z,17.93
2023-02-12T19:46:10.003Z,17.80
2023-02-12T19:48:37.173Z,17.80
2023-02-12T19:51:04.622Z,18.33
2023-02-12T19:53:31.897Z,18.07
2023-02-12T19:56:04.569Z,17.10
2023-02-12T19:58:34.817Z,17.20
2023-02-12T20:01:01.670Z,16.90
2023-02-12T20:03:28.862Z,14.70
2023-02-12T20:06:09.676Z,14.47
2023-02-12T20:08:37.817Z,12.90
2023-02-12T20:11:09.809Z,14.37
2023-02-12T20:13:36.673Z,14.50
2023-02-12T20:16:05.672Z,14.70
2023-02-12T20:18:33.116Z,17.27
2023-02-12T20:21:00.926Z,15.93
2023-02-12T20:23:28.401Z,14.47
2023-02-12T20:25:55.250Z,14.07
2023-02-12T20:28:22.079Z,17.20
2023-02-12T20:30:49.138Z,14.90
2023-02-12T20:33:17.849Z,17.13
2023-02-12T20:35:44.644Z,19.63
2023-02-12T20:38:11.330Z,19.20
2023-02-12T20:40:38.369Z,19.50
2023-02-12T20:43:05.138Z,18.70
2023-02-12T20:45:31.968Z,19.20
2023-02-12T20:47:58.792Z,18.57
2023-02-12T20:50:25.543Z,20.03
2023-02-12T20:52:52.508Z,18.33
2023-02-12T20:55:21.001Z,17.17
2023-02-12T20:57:50.215Z,18.20
2023-02-12T21:00:18.400Z,16.83
2023-02-12T21:02:45.204Z,16.73
2023-02-12T21:05:12.169Z,15.90
2023-02-12T21:07:39.305Z,18.03
2023-02-12T21:10:08.132Z,18.07
2023-02-12T21:12:36.819Z,17.47
2023-02-12T21:15:04.079Z,18.33
2023-02-12T21:17:30.983Z,17.20
2023-02-12T21:19:58.631Z,17.17
2023-02-12T21:22:25.296Z,18.47
2023-02-12T21:24:52.176Z,17.80
2023-02-12T21:27:19.128Z,18.43
2023-02-12T21:29:45.954Z,17.97
2023-02-12T21:32:14.719Z,17.67
2023-02-12T21:34:41.530Z,17.53
2023-02-12T21:37:08.274Z,18.17
2023-02-12T21:39:35.174Z,17.77
2023-02-12T21:42:04.299Z,17.63
2023-02-12T21:44:35.678Z,19.43
2023-02-12T21:47:02.511Z,19.73
2023-02-12T21:49:29.437Z,18.93
2023-02-12T21:51:58.938Z,19.30
2023-02-12T21:54:28.008Z,19.87
2023-02-12T21:56:55.741Z,19.60
2023-02-12T21:59:22.925Z,17.63
2023-02-12T22:01:51.989Z,16.77
2023-02-12T22:04:19.690Z,17.50
2023-02-12T22:06:49.964Z,17.50
2023-02-12T22:09:18.947Z,17.53
2023-02-12T22:11:45.764Z,19.37
2023-02-12T22:14:16.090Z,19.27
2023-02-12T22:16:43.251Z,19.13
2023-02-12T22:19:10.313Z,18.87
2023-02-12T22:21:38.856Z,20.67
2023-02-12T22:24:07.828Z,19.97
2023-02-12T22:26:35.134Z,19.83
2023-02-12T22:29:04.513Z,21.40
2023-02-12T22:31:33.448Z,20.63
2023-02-12T22:34:03.091Z,20.70
2023-02-12T22:36:30.730Z,19.60
2023-02-12T22:38:59.616Z,19.47
2023-02-12T22:41:27.451Z,19.80
2023-02-12T22:43:55.038Z,21.20
2023-02-12T22:46:23.223Z,19.77
2023-02-12T22:48:50.051Z,20.60
2023-02-12T22:51:21.048Z,20.43
2023-02-12T22:53:47.966Z,19.30
2023-02-12T22:56:15.316Z,21.07
2023-02-12T22:58:42.733Z,21.27
2023-02-12T23:01:13.090Z,21.23
2023-02-12T23:03:40.395Z,21.20
2023-02-12T23:06:11.902Z,21.53
2023-02-12T23:08:38.932Z,21.53
2023-02-12T23:11:07.929Z,21.07
2023-02-12T23:13:36.169Z,19.13
2023-02-12T23:16:04.146Z,19.83
2023-02-12T23:18:31.312Z,19.10
2023-02-12T23:20:58.390Z,19.93
2023-02-12T23:23:25.371Z,20.60
2023-02-12T23:25:54.016Z,21.30
2023-02-12T23:28:22.205Z,19.80
2023-02-12T23:30:50.167Z,20.33
2023-02-12T23:33:17.138Z,19.97
2023-02-12T23:35:47.864Z,21.07
2023-02-12T23:38:15.822Z,19.93
2023-02-12T23:40:43.381Z,19.73
2023-02-12T23:43:10.135Z,20.17
2023-02-12T23:45:36.922Z,19.83
2023-02-12T23:48:03.847Z,18.90
2023-02-12T23:50:30.653Z,20.10
2023-02-12T23:52:58.939Z,19.57
2023-02-12T23:55:25.722Z,19.37
2023-02-12T23:57:52.457Z,20.20
